createdAt,value
2022-08-12T00:00:45.504Z,515.90
2022-08-12T00:02:03.198Z,549.70
2022-08-12T00:02:46.539Z,534.80
2022-08-12T00:03:45.469Z,661.40
2022-08-12T00:04:45.449Z,545.40
2022-08-12T00:06:01.730Z,665.00
2022-08-12T00:06:46.447Z,560.20
2022-08-12T00:07:45.454Z,693.50
2022-08-12T00:08:45.417Z,576.40
2022-08-12T00:09:45.400Z,709.30
2022-08-12T00:10:45.391Z,540.50
2022-08-12T00:11:45.370Z,621.70
2022-08-12T00:12:45.388Z,495.50
2022-08-12T00:13:45.339Z,527.80
2022-08-12T00:14:45.351Z,512.10
2022-08-12T00:15:45.330Z,586.90
2022-08-12T00:16:45.320Z,471.30
2022-08-12T00:17:45.332Z,559.40
2022-08-12T00:18:45.301Z,586.70
2022-08-12T00:19:45.271Z,511.40
2022-08-12T00:20:45.276Z,572.70
2022-08-12T00:21:45.255Z,595.30
2022-08-12T00:22:45.276Z,658.20
2022-08-12T00:23:45.225Z,506.80
2022-08-12T00:24:45.225Z,497.90
2022-08-12T00:25:51.276Z,493.30
2022-08-12T00:26:46.220Z,470.00
2022-08-12T00:27:45.217Z,484.50
2022-08-12T00:28:45.182Z,514.70
2022-08-12T00:29:47.930Z,650.30
2022-08-12T00:30:45.156Z,479.20
2022-08-12T00:31:45.139Z,671.40
2022-08-12T00:32:56.560Z,407.40
2022-08-12T00:33:52.271Z,417.20
2022-08-12T00:34:46.146Z,414.20
2022-08-12T00:35:45.118Z,607.00
2022-08-12T00:36:45.144Z,553.30
2022-08-12T00:37:45.072Z,639.10
2022-08-12T00:38:45.090Z,445.20
2022-08-12T00:39:45.115Z,653.00
2022-08-12T00:40:45.039Z,442.60
2022-08-12T00:41:45.032Z,554.20
2022-08-12T00:42:45.013Z,509.70
2022-08-12T00:43:45.038Z,544.50
2022-08-12T00:44:44.998Z,528.00
2022-08-12T00:45:44.997Z,510.40
2022-08-12T00:46:44.969Z,496.70
2022-08-12T00:47:44.990Z,497.10
2022-08-12T00:48:44.955Z,494.40
2022-08-12T00:49:44.946Z,502.70
2022-08-12T00:50:45.930Z,524.80
2022-08-12T00:51:44.916Z,520.50
2022-08-12T00:52:44.962Z,499.20
2022-08-12T00:53:44.884Z,516.40
2022-08-12T00:54:44.871Z,517.20
2022-08-12T00:55:44.864Z,486.30
2022-08-12T00:56:44.855Z,511.30
2022-08-12T00:57:44.895Z,544.30
2022-08-12T00:58:44.845Z,899.30
2022-08-12T00:59:44.824Z,517.60
2022-08-12T01:00:44.837Z,552.70
2022-08-12T01:02:11.412Z,566.70
2022-08-12T01:02:45.821Z,591.30
2022-08-12T01:03:44.775Z,625.10
2022-08-12T01:04:44.767Z,560.70
2022-08-12T01:05:44.754Z,995.10
2022-08-12T01:06:44.736Z,662.90
2022-08-12T01:07:44.768Z,671.80
2022-08-12T01:08:44.713Z,620.40
2022-08-12T01:09:44.703Z,674.00
2022-08-12T01:10:44.702Z,773.20
2022-08-12T01:11:44.695Z,859.20
2022-08-12T01:12:44.673Z,631.50
2022-08-12T01:13:44.695Z,881.60
2022-08-12T01:14:44.660Z,715.50
2022-08-12T01:15:44.638Z,663.10
2022-08-12T01:16:44.627Z,653.10
2022-08-12T01:17:44.624Z,777.70
2022-08-12T01:18:44.648Z,640.50
2022-08-12T01:19:44.581Z,691.50
2022-08-12T01:20:44.582Z,546.70
2022-08-12T01:21:44.585Z,522.70
2022-08-12T01:22:44.595Z,540.50
2022-08-12T01:23:44.545Z,624.70
2022-08-12T01:24:44.537Z,547.20
2022-08-12T01:25:55.568Z,492.90
2022-08-12T01:26:45.517Z,718.80
2022-08-12T01:27:44.491Z,467.30
2022-08-12T01:28:44.529Z,484.10
2022-08-12T01:29:44.460Z,430.70
2022-08-12T01:30:44.469Z,444.50
2022-08-12T01:31:44.455Z,467.20
2022-08-12T01:32:44.442Z,410.70
2022-08-12T01:33:44.459Z,494.50
2022-08-12T01:34:44.409Z,436.80
2022-08-12T01:35:44.393Z,407.60
2022-08-12T01:36:45.382Z,405.40
2022-08-12T01:37:44.372Z,395.50
2022-08-12T01:38:44.400Z,395.90
2022-08-12T01:40:31.677Z,465.60
2022-08-12T01:40:47.182Z,433.10
2022-08-12T01:41:44.339Z,391.50
2022-08-12T01:42:45.324Z,456.50
2022-08-12T01:43:44.339Z,384.20
2022-08-12T01:44:44.303Z,408.30
2022-08-12T01:45:44.297Z,414.50
2022-08-12T01:46:44.285Z,389.20
2022-08-12T01:47:44.263Z,395.00
2022-08-12T01:48:44.285Z,383.00
2022-08-12T01:49:44.251Z,383.90
2022-08-12T01:50:44.232Z,392.10
2022-08-12T01:52:21.869Z,378.20
2022-08-12T01:52:45.200Z,387.40
2022-08-12T01:53:50.416Z,385.60
2022-08-12T01:54:45.182Z,412.50
2022-08-12T01:55:44.173Z,402.60
2022-08-12T01:56:44.165Z,399.60
2022-08-12T01:57:58.948Z,492.20
2022-08-12T01:58:45.170Z,520.40
2022-08-12T01:59:44.129Z,429.50
2022-08-12T02:00:54.960Z,500.50
2022-08-12T02:01:45.215Z,505.10
2022-08-12T02:02:44.088Z,574.50
2022-08-12T02:03:44.115Z,562.70
2022-08-12T02:04:44.065Z,527.60
2022-08-12T02:05:44.076Z,545.10
2022-08-12T02:06:44.046Z,561.10
2022-08-12T02:07:44.040Z,438.00
2022-08-12T02:08:44.058Z,707.50
2022-08-12T02:09:44.015Z,504.30
2022-08-12T02:10:51.397Z,437.70
2022-08-12T02:11:44.987Z,442.20
2022-08-12T02:12:43.973Z,470.70
2022-08-12T02:13:49.478Z,410.60
2022-08-12T02:14:44.949Z,378.60
2022-08-12T02:15:43.934Z,414.80
2022-08-12T02:16:43.916Z,452.90
2022-08-12T02:17:55.522Z,422.90
2022-08-12T02:18:44.930Z,494.90
2022-08-12T02:19:43.904Z,541.30
2022-08-12T02:20:52.665Z,510.10
2022-08-12T02:21:44.868Z,476.20
2022-08-12T02:22:43.860Z,506.80
2022-08-12T02:23:43.891Z,515.60
2022-08-12T02:24:43.834Z,482.50
2022-08-12T02:25:43.824Z,387.00
2022-08-12T02:26:43.818Z,583.30
2022-08-12T02:27:43.797Z,376.70
2022-08-12T02:28:43.828Z,405.30
2022-08-12T02:29:43.782Z,494.10
2022-08-12T02:30:43.761Z,479.60
2022-08-12T02:31:43.759Z,433.00
2022-08-12T02:32:43.740Z,459.60
2022-08-12T02:33:43.768Z,474.60
2022-08-12T02:34:43.718Z,407.80
2022-08-12T02:35:43.704Z,415.70
2022-08-12T02:36:43.692Z,549.80
2022-08-12T02:37:43.686Z,465.80
2022-08-12T02:38:43.704Z,390.90
2022-08-12T02:39:43.704Z,380.20
2022-08-12T02:40:43.654Z,683.70
2022-08-12T02:41:43.648Z,507.20
2022-08-12T02:42:43.628Z,465.00
2022-08-12T02:43:43.659Z,458.20
2022-08-12T02:44:43.598Z,676.00
2022-08-12T02:45:43.604Z,481.00
2022-08-12T02:46:43.582Z,373.90
2022-08-12T02:47:58.549Z,372.10
2022-08-12T02:48:44.593Z,394.50
2022-08-12T02:49:43.548Z,475.40
2022-08-12T02:50:43.565Z,528.80
2022-08-12T02:51:43.530Z,441.80
2022-08-12T02:52:43.517Z,491.20
2022-08-12T02:53:43.504Z,464.00
2022-08-12T02:54:43.517Z,483.60
2022-08-12T02:55:43.468Z,487.70
2022-08-12T02:56:48.047Z,516.40
2022-08-12T02:57:44.462Z,411.20
2022-08-12T02:58:45.427Z,430.20
2022-08-12T02:59:43.451Z,424.20
2022-08-12T03:00:43.531Z,470.40
2022-08-12T03:01:47.704Z,506.10
2022-08-12T03:02:43.398Z,514.30
2022-08-12T03:03:43.399Z,467.50
2022-08-12T03:04:44.156Z,458.40
2022-08-12T03:05:44.156Z,462.60
2022-08-12T03:06:43.354Z,463.90
2022-08-12T03:07:59.239Z,444.10
2022-08-12T03:08:46.057Z,567.60
2022-08-12T03:10:04.739Z,447.20
2022-08-12T03:10:44.308Z,468.10
2022-08-12T03:11:48.774Z,470.30
2022-08-12T03:12:49.890Z,473.90
2022-08-12T03:13:44.269Z,462.30
2022-08-12T03:14:43.290Z,457.00
2022-08-12T03:15:43.254Z,450.60
2022-08-12T03:16:43.238Z,459.50
2022-08-12T03:17:43.231Z,494.60
2022-08-12T03:18:45.798Z,620.00
2022-08-12T03:20:10.513Z,495.10
2022-08-12T03:20:44.182Z,486.40
2022-08-12T03:22:05.690Z,416.60
2022-08-12T03:22:44.159Z,555.00
2022-08-12T03:23:43.165Z,538.00
2022-08-12T03:24:43.175Z,450.50
2022-08-12T03:25:43.139Z,443.70
2022-08-12T03:26:43.134Z,467.90
2022-08-12T03:27:43.115Z,462.10
2022-08-12T03:28:43.101Z,453.80
2022-08-12T03:29:45.178Z,463.00
2022-08-12T03:30:44.086Z,449.20
2022-08-12T03:31:43.077Z,440.60
2022-08-12T03:32:43.051Z,442.70
2022-08-12T03:33:43.048Z,447.80
2022-08-12T03:34:43.048Z,436.60
2022-08-12T03:35:43.019Z,412.10
2022-08-12T03:36:43.028Z,412.20
2022-08-12T03:37:42.994Z,403.20
2022-08-12T03:38:42.974Z,450.20
2022-08-12T03:39:43.041Z,444.00
2022-08-12T03:40:42.971Z,434.40
2022-08-12T03:41:42.954Z,433.90
2022-08-12T03:42:43.040Z,435.90
2022-08-12T03:43:42.954Z,440.70
2022-08-12T03:44:42.912Z,434.50
2022-08-12T03:45:52.338Z,430.40
2022-08-12T03:46:43.885Z,437.50
2022-08-12T03:47:42.881Z,442.50
2022-08-12T03:48:42.863Z,455.50
2022-08-12T03:49:42.899Z,469.50
2022-08-12T03:50:42.851Z,497.60
2022-08-12T03:51:42.840Z,505.30
2022-08-12T03:52:42.815Z,526.40
2022-08-12T03:53:42.816Z,523.40
2022-08-12T03:54:42.837Z,506.90
2022-08-12T03:55:42.796Z,537.30
2022-08-12T03:56:42.781Z,549.20
2022-08-12T03:57:42.774Z,566.80
2022-08-12T03:58:43.757Z,584.20
2022-08-12T03:59:42.763Z,599.30
2022-08-12T04:00:42.805Z,621.90
2022-08-12T04:01:42.727Z,618.00
2022-08-12T04:02:42.707Z,631.00
2022-08-12T04:03:42.739Z,634.80
2022-08-12T04:04:42.679Z,649.50
2022-08-12T04:05:56.092Z,624.20
2022-08-12T04:06:43.666Z,678.70
2022-08-12T04:07:51.336Z,660.30
2022-08-12T04:08:43.665Z,627.60
2022-08-12T04:09:42.641Z,643.70
2022-08-12T04:10:42.623Z,607.10
2022-08-12T04:11:47.092Z,558.00
2022-08-12T04:12:42.680Z,572.30
2022-08-12T04:13:42.632Z,552.20
2022-08-12T04:14:42.569Z,558.40
2022-08-12T04:15:42.559Z,542.00
2022-08-12T04:16:42.543Z,515.50
2022-08-12T04:18:06.961Z,524.90
2022-08-12T04:18:43.566Z,546.40
2022-08-12T04:19:42.507Z,528.40
2022-08-12T04:20:42.484Z,539.60
2022-08-12T04:22:02.793Z,639.40
2022-08-12T04:22:43.463Z,697.80
2022-08-12T04:23:47.787Z,536.30
2022-08-12T04:24:43.458Z,771.90
2022-08-12T04:25:43.460Z,625.10
2022-08-12T04:26:42.426Z,610.00
2022-08-12T04:27:42.419Z,489.50
2022-08-12T04:28:42.442Z,662.90
2022-08-12T04:30:29.338Z,503.90
2022-08-12T04:30:43.386Z,631.50
2022-08-12T04:31:42.371Z,613.00
2022-08-12T04:32:44.440Z,538.10
2022-08-12T04:33:42.410Z,479.40
2022-08-12T04:34:42.330Z,744.90
2022-08-12T04:35:42.336Z,470.20
2022-08-12T04:36:42.313Z,494.30
2022-08-12T04:37:59.881Z,531.30
2022-08-12T04:38:43.331Z,494.20
2022-08-12T04:39:42.324Z,540.80
2022-08-12T04:40:42.284Z,574.50
2022-08-12T04:41:56.078Z,554.20
2022-08-12T04:42:43.251Z,500.50
2022-08-12T04:43:59.826Z,537.00
2022-08-12T04:44:43.231Z,496.50
2022-08-12T04:45:42.222Z,454.50
2022-08-12T04:46:42.198Z,476.30
2022-08-12T04:47:42.191Z,489.70
2022-08-12T04:48:42.172Z,566.30
2022-08-12T04:49:42.201Z,513.70
2022-08-12T04:50:42.149Z,561.10
2022-08-12T04:51:42.144Z,525.80
2022-08-12T04:52:43.298Z,539.60
2022-08-12T04:53:42.125Z,550.70
2022-08-12T04:54:42.129Z,505.90
2022-08-12T04:55:42.130Z,506.80
2022-08-12T04:56:42.101Z,475.30
2022-08-12T04:57:42.066Z,413.90
2022-08-12T04:58:42.057Z,383.00
2022-08-12T04:59:46.567Z,333.30
2022-08-12T05:00:43.036Z,358.40
2022-08-12T05:01:42.034Z,362.60
2022-08-12T05:02:42.279Z,428.40
2022-08-12T05:03:46.128Z,438.90
2022-08-12T05:04:43.012Z,381.60
2022-08-12T05:05:41.987Z,494.80
2022-08-12T05:06:41.972Z,494.00
2022-08-12T05:07:54.140Z,530.40
2022-08-12T05:08:42.940Z,528.00
2022-08-12T05:10:00.441Z,551.20
2022-08-12T05:10:42.922Z,581.30
2022-08-12T05:11:54.250Z,613.30
2022-08-12T05:12:43.121Z,597.70
2022-08-12T05:13:41.887Z,573.50
2022-08-12T05:14:41.919Z,490.80
2022-08-12T05:16:02.578Z,461.00
2022-08-12T05:16:42.849Z,426.70
2022-08-12T05:17:41.863Z,412.20
2022-08-12T05:18:45.865Z,379.30
2022-08-12T05:19:43.408Z,393.10
2022-08-12T05:20:41.805Z,470.80
2022-08-12T05:21:41.896Z,524.10
2022-08-12T05:22:41.991Z,569.60
2022-08-12T05:23:41.768Z,505.60
2022-08-12T05:24:41.794Z,392.60
2022-08-12T05:25:41.755Z,555.10
2022-08-12T05:26:41.754Z,470.20
2022-08-12T05:27:55.187Z,421.60
2022-08-12T05:28:42.724Z,423.80
2022-08-12T05:30:06.721Z,420.30
2022-08-12T05:30:42.842Z,486.30
2022-08-12T05:31:47.693Z,395.40
2022-08-12T05:32:42.729Z,327.60
2022-08-12T05:33:41.664Z,278.80
2022-08-12T05:34:41.680Z,301.00
2022-08-12T05:35:41.640Z,314.90
2022-08-12T05:36:41.619Z,321.20
2022-08-12T05:37:41.608Z,357.70
2022-08-12T05:38:41.598Z,368.20
2022-08-12T05:39:41.690Z,368.80
2022-08-12T05:40:41.560Z,399.50
2022-08-12T05:41:41.592Z,339.20
2022-08-12T05:42:41.615Z,411.60
2022-08-12T05:43:41.548Z,426.20
2022-08-12T05:44:41.578Z,456.40
2022-08-12T05:45:44.703Z,447.80
2022-08-12T05:46:41.522Z,405.10
2022-08-12T05:47:53.732Z,369.50
2022-08-12T05:48:42.489Z,340.20
2022-08-12T05:49:41.525Z,198.20
2022-08-12T05:50:41.478Z,287.10
2022-08-12T05:51:41.896Z,222.50
2022-08-12T05:52:41.600Z,145.50
2022-08-12T05:53:41.436Z,109.50
2022-08-12T05:54:57.165Z,118.70
2022-08-12T05:55:42.411Z,206.10
2022-08-12T05:56:41.549Z,183.00
2022-08-12T05:57:41.395Z,133.10
2022-08-12T05:58:41.377Z,170.00
2022-08-12T05:59:41.371Z,189.70
2022-08-12T06:00:41.393Z,200.20
2022-08-12T06:02:12.666Z,214.50
2022-08-12T06:02:42.391Z,183.40
2022-08-12T06:03:41.315Z,213.40
2022-08-12T06:04:41.313Z,169.30
2022-08-12T06:05:43.128Z,112.80
2022-08-12T06:06:42.307Z,124.50
2022-08-12T06:08:01.438Z,140.00
2022-08-12T06:08:42.276Z,183.70
2022-08-12T06:09:41.316Z,174.30
2022-08-12T06:10:41.236Z,145.70
2022-08-12T06:11:41.225Z,105.80
2022-08-12T06:12:42.365Z,70.70
2022-08-12T06:13:53.669Z,68.70
2022-08-12T06:14:42.232Z,90.90
2022-08-12T06:15:41.182Z,101.30
2022-08-12T06:16:41.152Z,78.60
2022-08-12T06:17:41.153Z,86.20
2022-08-12T06:18:41.150Z,114.50
2022-08-12T06:20:27.029Z,149.50
2022-08-12T06:20:42.138Z,129.10
2022-08-12T06:21:41.127Z,161.00
2022-08-12T06:22:41.270Z,175.50
2022-08-12T06:23:42.872Z,198.80
2022-08-12T06:24:41.137Z,141.90
2022-08-12T06:25:41.078Z,96.10
2022-08-12T06:26:41.054Z,52.00
2022-08-12T06:27:41.063Z,38.20
2022-08-12T06:28:42.045Z,31.30
2022-08-12T06:30:09.663Z,31.00
2022-08-12T06:30:42.025Z,34.90
2022-08-12T06:31:41.008Z,35.80
2022-08-12T06:32:52.048Z,33.70
2022-08-12T06:33:55.427Z,33.40
2022-08-12T06:35:27.249Z,43.90
2022-08-12T06:35:48.703Z,38.50
2022-08-12T06:36:42.903Z,29.00
2022-08-12T06:37:40.942Z,18.80
2022-08-12T06:38:40.925Z,14.80
2022-08-12T06:39:40.971Z,12.70
2022-08-12T06:40:40.919Z,15.10
2022-08-12T06:41:40.888Z,19.10
2022-08-12T06:42:41.887Z,19.30
2022-08-12T06:44:06.865Z,16.40
2022-08-12T06:44:41.912Z,16.60
2022-08-12T06:45:46.089Z,16.60
2022-08-12T06:46:41.841Z,18.40
2022-08-12T06:47:40.809Z,17.60
2022-08-12T06:48:40.856Z,19.10
2022-08-12T06:49:40.797Z,20.50
2022-08-12T06:50:40.808Z,19.10
2022-08-12T06:51:40.763Z,18.10
2022-08-12T06:52:40.873Z,15.60
2022-08-12T06:53:40.754Z,14.00
2022-08-12T06:54:40.732Z,13.50
2022-08-12T06:55:57.636Z,14.80
2022-08-12T06:58:07.301Z,19.30
2022-08-12T06:58:41.697Z,18.10
2022-08-12T06:59:40.674Z,15.70
2022-08-12T07:00:40.759Z,13.70
2022-08-12T07:01:40.658Z,12.10
2022-08-12T07:02:41.960Z,13.50
2022-08-12T07:03:40.637Z,12.90
2022-08-12T07:04:40.759Z,12.20
2022-08-12T07:05:40.633Z,11.50
2022-08-12T07:06:40.646Z,11.80
2022-08-12T07:07:40.588Z,13.90
2022-08-12T07:08:40.593Z,14.70
2022-08-12T07:10:01.193Z,15.70
2022-08-12T07:10:41.617Z,17.70
2022-08-12T07:11:40.553Z,22.20
2022-08-12T07:12:40.688Z,25.90
2022-08-12T07:14:02.605Z,23.40
2022-08-12T07:14:43.735Z,21.70
2022-08-12T07:15:41.530Z,18.40
2022-08-12T07:16:40.504Z,15.50
2022-08-12T07:17:40.484Z,14.20
2022-08-12T07:18:40.477Z,14.70
2022-08-12T07:19:45.123Z,15.90
2022-08-12T07:20:52.364Z,13.80
2022-08-12T07:22:00.084Z,11.30
2022-08-12T07:22:41.585Z,14.50
2022-08-12T07:23:40.412Z,24.00
2022-08-12T07:24:40.427Z,22.90
2022-08-12T07:25:41.511Z,23.60
2022-08-12T07:26:40.371Z,22.80
2022-08-12T07:27:40.370Z,22.10
2022-08-12T07:28:40.353Z,20.70
2022-08-12T07:29:57.865Z,17.50
2022-08-12T07:30:41.376Z,16.80
2022-08-12T07:31:40.329Z,14.40
2022-08-12T07:32:40.422Z,12.40
2022-08-12T07:33:40.291Z,11.80
2022-08-12T07:34:40.288Z,13.60
2022-08-12T07:35:40.328Z,16.10
2022-08-12T07:36:40.283Z,14.80
2022-08-12T07:37:40.256Z,12.90
2022-08-12T07:38:40.264Z,12.70
2022-08-12T07:39:49.921Z,14.60
2022-08-12T07:40:41.256Z,15.20
2022-08-12T07:41:40.225Z,15.60
2022-08-12T07:42:40.436Z,14.50
2022-08-12T07:43:40.195Z,16.70
2022-08-12T07:44:40.171Z,14.50
2022-08-12T07:45:40.189Z,14.60
2022-08-12T07:46:40.155Z,16.90
2022-08-12T07:47:40.129Z,19.30
2022-08-12T07:48:40.175Z,19.80
2022-08-12T07:50:03.754Z,15.30
2022-08-12T07:50:41.147Z,19.00
2022-08-12T07:51:40.096Z,26.40
2022-08-12T07:52:40.305Z,19.60
2022-08-12T07:53:57.524Z,24.80
2022-08-12T07:54:41.068Z,16.90
2022-08-12T07:55:40.122Z,14.30
2022-08-12T07:56:40.051Z,11.30
2022-08-12T07:57:40.041Z,12.00
2022-08-12T07:58:41.986Z,10.90
2022-08-12T07:59:41.004Z,13.60
2022-08-12T08:00:39.991Z,14.40
2022-08-12T08:01:40.062Z,12.40
2022-08-12T08:02:40.096Z,11.20
2022-08-12T08:03:47.545Z,10.70
2022-08-12T08:04:40.970Z,10.70
2022-08-12T08:05:39.932Z,11.10
2022-08-12T08:06:39.976Z,11.60
2022-08-12T08:07:39.916Z,12.10
2022-08-12T08:08:39.925Z,12.00
2022-08-12T08:09:39.897Z,11.30
2022-08-12T08:10:39.874Z,10.20
2022-08-12T08:11:39.923Z,10.70
2022-08-12T08:12:39.983Z,10.70
2022-08-12T08:13:39.864Z,10.20
2022-08-12T08:14:39.846Z,11.90
2022-08-12T08:16:01.936Z,13.00
2022-08-12T08:16:40.866Z,12.10
2022-08-12T08:17:39.854Z,12.40
2022-08-12T08:18:39.807Z,11.90
2022-08-12T08:20:03.152Z,11.90
2022-08-12T08:20:40.771Z,11.40
2022-08-12T08:21:39.801Z,11.40
2022-08-12T08:22:41.675Z,11.40
2022-08-12T08:23:39.758Z,10.60
2022-08-12T08:24:39.738Z,9.90
2022-08-12T08:25:39.758Z,10.20
2022-08-12T08:26:39.752Z,10.20
2022-08-12T08:27:39.716Z,10.00
2022-08-12T08:28:39.736Z,9.70
2022-08-12T08:29:39.696Z,9.80
2022-08-12T08:30:39.678Z,9.90
2022-08-12T08:31:40.680Z,9.80
2022-08-12T08:32:39.810Z,9.80
2022-08-12T08:34:09.193Z,9.80
2022-08-12T08:34:53.630Z,9.50
2022-08-12T08:35:46.466Z,10.10
2022-08-12T08:36:40.635Z,9.90
2022-08-12T08:37:39.607Z,10.50
2022-08-12T08:38:39.594Z,10.20
2022-08-12T08:39:39.674Z,10.40
2022-08-12T08:40:39.546Z,10.80
2022-08-12T08:42:16.226Z,10.90
2022-08-12T08:42:40.845Z,11.20
2022-08-12T08:43:43.195Z,11.40
2022-08-12T08:44:40.511Z,11.30
2022-08-12T08:45:39.517Z,11.90
2022-08-12T08:46:39.546Z,11.70
2022-08-12T08:47:39.508Z,11.80
2022-08-12T08:48:39.479Z,10.70
2022-08-12T08:49:39.483Z,10.10
2022-08-12T08:50:39.471Z,9.20
2022-08-12T08:51:39.481Z,9.30
2022-08-12T08:52:41.039Z,9.10
2022-08-12T08:53:39.425Z,8.60
2022-08-12T08:54:40.382Z,8.10
2022-08-12T08:56:03.586Z,8.60
2022-08-12T08:56:40.434Z,8.30
2022-08-12T08:57:43.484Z,8.90
2022-08-12T08:58:40.380Z,9.30
2022-08-12T08:59:39.391Z,8.90
2022-08-12T09:00:39.369Z,8.20
2022-08-12T09:01:39.391Z,9.50
2022-08-12T09:02:39.535Z,9.10
2022-08-12T09:05:09.528Z,9.00
2022-08-12T09:05:12.984Z,9.20
2022-08-12T09:06:01.797Z,8.40
2022-08-12T09:06:41.939Z,8.80
2022-08-12T09:07:43.962Z,9.70
2022-08-12T09:08:40.316Z,10.10
2022-08-12T09:10:40.721Z,10.40
2022-08-12T09:12:11.536Z,10.90
2022-08-12T09:12:42.284Z,10.00
2022-08-12T09:14:40.221Z,11.00
2022-08-12T09:15:41.575Z,10.80
2022-08-12T09:16:42.756Z,10.50
2022-08-12T09:17:52.390Z,10.00
2022-08-12T09:18:41.089Z,10.30
2022-08-12T09:19:39.167Z,10.50
2022-08-12T09:20:39.138Z,11.00
2022-08-12T09:21:54.881Z,11.10
2022-08-12T09:22:40.170Z,11.50
2022-08-12T09:23:59.454Z,11.50
2022-08-12T09:24:40.107Z,12.00
2022-08-12T09:25:39.105Z,12.60
2022-08-12T09:26:46.337Z,12.30
2022-08-12T09:27:57.993Z,11.10
2022-08-12T09:28:40.044Z,10.00
2022-08-12T09:30:09.953Z,9.50
2022-08-12T09:30:42.197Z,9.60
2022-08-12T09:32:03.264Z,9.00
2022-08-12T09:33:05.219Z,8.10
2022-08-12T09:34:27.351Z,9.20
2022-08-12T09:34:42.697Z,9.20
2022-08-12T09:35:42.795Z,8.50
2022-08-12T09:37:00.551Z,8.60
2022-08-12T09:37:55.188Z,9.40
2022-08-12T09:38:39.973Z,8.80
2022-08-12T09:40:05.625Z,8.40
2022-08-12T09:40:57.481Z,7.60
2022-08-12T09:42:34.217Z,7.40
2022-08-12T09:42:54.385Z,9.30
2022-08-12T09:43:53.352Z,9.90
2022-08-12T09:44:40.113Z,10.10
2022-08-12T09:46:06.328Z,9.50
2022-08-12T09:46:39.904Z,9.00
2022-08-12T09:47:38.898Z,9.00
2022-08-12T09:48:39.870Z,8.90
2022-08-12T09:49:42.500Z,9.00
2022-08-12T09:50:38.821Z,8.60
2022-08-12T09:51:44.346Z,8.50
2022-08-12T09:52:39.856Z,8.80
2022-08-12T09:53:39.773Z,8.30
2022-08-12T09:54:38.773Z,8.40
2022-08-12T09:56:06.349Z,8.80
2022-08-12T09:57:00.467Z,8.90
2022-08-12T09:58:44.465Z,9.70
2022-08-12T09:58:58.318Z,9.20
2022-08-12T10:00:16.084Z,7.90
2022-08-12T10:00:51.705Z,8.20
2022-08-12T10:02:39.857Z,8.10
2022-08-12T10:02:53.071Z,8.10
2022-08-12T10:04:03.398Z,7.60
2022-08-12T10:04:45.688Z,8.10
2022-08-12T10:06:20.045Z,7.90
2022-08-12T10:06:54.255Z,8.40
2022-08-12T10:07:40.912Z,8.80
2022-08-12T10:08:38.692Z,8.90
2022-08-12T10:09:57.348Z,9.00
2022-08-12T10:10:42.557Z,8.60
2022-08-12T10:12:10.307Z,9.00
2022-08-12T10:12:39.574Z,10.50
2022-08-12T10:13:41.787Z,9.50
2022-08-12T10:14:38.550Z,10.60
2022-08-12T10:16:02.844Z,10.20
2022-08-12T10:16:39.732Z,10.30
2022-08-12T10:18:05.812Z,10.80
2022-08-12T10:18:52.250Z,10.40
2022-08-12T10:19:39.521Z,10.70
2022-08-12T10:20:38.485Z,10.30
2022-08-12T10:21:38.501Z,10.10
2022-08-12T10:22:40.851Z,9.70
2022-08-12T10:23:39.962Z,9.10
2022-08-12T10:24:38.443Z,9.80
2022-08-12T10:26:34.566Z,11.80
2022-08-12T10:26:39.654Z,11.10
2022-08-12T10:27:39.388Z,10.60
2022-08-12T10:28:39.473Z,10.80
2022-08-12T10:30:38.976Z,11.10
2022-08-12T10:30:46.802Z,11.40
2022-08-12T10:32:19.459Z,11.70
2022-08-12T10:32:43.862Z,13.00
2022-08-12T10:33:55.003Z,12.40
2022-08-12T10:34:39.360Z,12.30
2022-08-12T10:35:39.343Z,13.20
2022-08-12T10:36:42.645Z,14.50
2022-08-12T10:38:34.303Z,15.50
2022-08-12T10:38:41.439Z,15.30
2022-08-12T10:40:01.780Z,14.30
2022-08-12T10:40:39.410Z,12.50
2022-08-12T10:41:57.673Z,11.50
2022-08-12T10:42:39.290Z,11.30
2022-08-12T10:43:55.116Z,11.60
2022-08-12T10:44:39.255Z,13.40
2022-08-12T10:45:38.772Z,14.00
2022-08-12T10:46:38.245Z,14.80
2022-08-12T10:48:19.051Z,15.60
2022-08-12T10:48:39.259Z,15.90
2022-08-12T10:50:03.731Z,17.10
2022-08-12T10:50:58.665Z,17.30
2022-08-12T10:52:03.816Z,16.70
2022-08-12T10:52:39.179Z,15.60
2022-08-12T10:53:44.143Z,15.70
2022-08-12T10:54:39.152Z,16.30
2022-08-12T10:55:38.149Z,15.30
2022-08-12T10:56:38.136Z,14.20
2022-08-12T10:58:13.545Z,14.70
2022-08-12T10:58:39.144Z,14.70
2022-08-12T11:00:31.019Z,15.50
2022-08-12T11:00:55.272Z,14.40
2022-08-12T11:04:17.793Z,13.50
2022-08-12T11:04:18.804Z,11.60
2022-08-12T11:04:28.131Z,12.30
2022-08-12T11:04:49.253Z,10.50
2022-08-12T11:07:08.650Z,10.90
2022-08-12T11:07:10.117Z,10.50
2022-08-12T11:08:34.827Z,10.60
2022-08-12T11:08:43.203Z,11.60
2022-08-12T11:09:41.990Z,13.70
2022-08-12T11:10:39.068Z,13.80
2022-08-12T11:12:36.188Z,14.20
2022-08-12T11:12:58.988Z,14.30
2022-08-12T11:13:46.012Z,14.80
2022-08-12T11:14:49.617Z,14.80
2022-08-12T11:16:03.638Z,14.30
2022-08-12T11:16:38.960Z,12.40
2022-08-12T11:17:52.093Z,11.70
2022-08-12T11:18:38.916Z,12.20
2022-08-12T11:19:37.954Z,12.90
2022-08-12T11:20:37.892Z,14.10
2022-08-12T11:21:57.562Z,14.30
2022-08-12T11:22:38.895Z,14.40
2022-08-12T11:23:37.887Z,15.30
2022-08-12T11:24:37.884Z,15.50
2022-08-12T11:25:57.949Z,16.40
2022-08-12T11:26:38.862Z,16.90
2022-08-12T11:27:37.876Z,18.10
2022-08-12T11:28:38.659Z,18.90
2022-08-12T11:30:01.761Z,18.90
2022-08-12T11:30:38.821Z,19.20
2022-08-12T11:31:56.091Z,20.00
2022-08-12T11:32:39.556Z,20.40
2022-08-12T11:34:05.666Z,21.00
2022-08-12T11:34:53.245Z,21.00
2022-08-12T11:35:38.749Z,21.10
2022-08-12T11:36:39.495Z,21.50
2022-08-12T11:37:37.852Z,21.70
2022-08-12T11:38:38.693Z,20.80
2022-08-12T11:40:03.471Z,20.40
2022-08-12T11:40:42.706Z,20.50
2022-08-12T11:41:37.663Z,21.40
2022-08-12T11:42:46.078Z,20.30
2022-08-12T11:43:50.358Z,18.90
2022-08-12T11:44:43.444Z,17.00
2022-08-12T11:45:38.914Z,16.90
2022-08-12T11:46:37.620Z,17.60
2022-08-12T11:47:40.330Z,18.10
2022-08-12T11:48:51.311Z,16.70
2022-08-12T11:49:38.587Z,16.70
2022-08-12T11:50:42.127Z,17.50
2022-08-12T11:51:39.755Z,18.40
2022-08-12T11:52:56.448Z,19.50
2022-08-12T11:53:59.000Z,21.00
2022-08-12T11:54:38.549Z,20.90
2022-08-12T11:55:46.806Z,20.20
2022-08-12T11:56:41.296Z,19.60
2022-08-12T11:58:07.163Z,17.50
2022-08-12T12:00:34.594Z,15.60
2022-08-12T12:02:01.678Z,11.90
2022-08-12T12:02:38.499Z,11.00
2022-08-12T12:03:40.498Z,9.60
2022-08-12T12:04:38.468Z,9.50
2022-08-12T12:05:42.057Z,9.20
2022-08-12T12:06:38.440Z,10.70
2022-08-12T12:08:38.197Z,12.80
2022-08-12T12:08:42.696Z,11.70
2022-08-12T12:09:52.295Z,12.70
2022-08-12T12:10:38.444Z,13.50
2022-08-12T12:11:48.685Z,14.50
2022-08-12T12:12:38.363Z,15.10
2022-08-12T12:14:06.595Z,14.90
2022-08-12T12:14:39.180Z,12.40
2022-08-12T12:15:41.100Z,10.50
2022-08-12T12:16:39.557Z,10.40
2022-08-12T12:17:38.526Z,11.70
2022-08-12T12:18:37.299Z,12.40
2022-08-12T12:19:45.444Z,13.50
2022-08-12T12:20:38.323Z,14.00
2022-08-12T12:21:47.058Z,14.50
2022-08-12T12:22:38.252Z,15.30
2022-08-12T12:23:37.264Z,15.90
2022-08-12T12:24:37.286Z,16.20
2022-08-12T12:25:59.703Z,16.30
2022-08-12T12:26:38.521Z,16.20
2022-08-12T12:28:02.617Z,17.00
2022-08-12T12:28:39.659Z,17.60
2022-08-12T12:30:18.662Z,18.40
2022-08-12T12:30:38.217Z,18.10
2022-08-12T12:32:10.139Z,19.10
2022-08-12T12:32:38.197Z,18.70
2022-08-12T12:33:58.447Z,19.30
2022-08-12T12:34:38.207Z,19.70
2022-08-12T12:36:06.599Z,20.00
2022-08-12T12:36:38.189Z,18.80
2022-08-12T12:38:04.910Z,17.50
2022-08-12T12:38:38.130Z,17.80
2022-08-12T12:39:55.139Z,18.10
2022-08-12T12:40:39.584Z,19.00
2022-08-12T12:42:44.331Z,20.40
2022-08-12T12:42:44.675Z,19.50
2022-08-12T12:43:43.473Z,20.90
2022-08-12T12:44:41.912Z,20.80
2022-08-12T12:45:38.107Z,22.60
2022-08-12T12:46:37.051Z,23.10
2022-08-12T12:47:37.230Z,23.10